Time,TemperatureF,DewpointF,PressureIn,WindDirection,WindDirectionDegrees,WindSpeedMPH,WindSpeedGustMPH,Humidity,HourlyPrecipIn,Conditions,Clouds,dailyrainin,SolarRadiationWatts/m^2,SoftwareType,DateUTC
2013-09-12 00:06:00,60.1,58.0,29.95,North,-999,0.0,0.0,93,0.00,,,0.00,0,weatherlink.com 1.10,2013-09-12 07:06:00,
2013-09-12 00:21:00,60.1,58.0,29.95,North,-999,0.0,0.0,93,0.00,,,0.00,0,weatherlink.com 1.10,2013-09-12 07:21:00,
2013-09-12 00:36:00,60.0,58.0,29.95,North,-999,0.0,0.0,94,0.00,,,0.00,0,weatherlink.com 1.10,2013-09-12 07:36:00,
2013-09-12 00:51:00,60.1,58.0,29.95,North,-999,0.0,0.0,94,0.00,,,0.00,0,weatherlink.com 1.10,2013-09-12 07:51:00,
2013-09-12 01:06:00,60.0,58.0,29.95,North,-999,0.0,0.0,94,0.00,,,0.00,0,weatherlink.com 1.10,2013-09-12 08:06:00,
2013-09-12 01:21:00,59.9,58.0,29.95,North,360,0.0,0.0,94,0.00,,,0.00,0,weatherlink.com 1.10,2013-09-12 08:21:00,
2013-09-12 01:36:00,59.7,58.0,29.95,North,360,0.0,0.0,94,0.00,,,0.00,0,weatherlink.com 1.10,2013-09-12 08:36:00,
2013-09-12 01:51:00,59.6,58.0,29.95,North,360,0.0,0.0,95,0.00,,,0.00,0,weatherlink.com 1.10,2013-09-12 08:51:00,
2013-09-12 02:06:00,59.5,58.0,29.94,North,-999,0.0,0.0,95,0.00,,,0.00,0,weatherlink.com 1.10,2013-09-12 09:06:00,
2013-09-12 02:21:00,59.5,58.0,29.94,North,360,0.0,0.0,95,0.00,,,0.00,0,weatherlink.com 1.10,2013-09-12 09:21:00,
2013-09-12 02:36:00,59.5,58.0,29.94,North,-999,0.0,0.0,95,0.00,,,0.00,0,weatherlink.com 1.10,2013-09-12 09:36:00,
2013-09-12 02:51:00,59.6,58.0,29.94,North,-999,0.0,0.0,95,0.00,,,0.00,0,weatherlink.com 1.10,2013-09-12 09:51:00,
2013-09-12 03:06:00,59.5,58.0,29.94,North,-999,0.0,0.0,95,0.01,,,0.01,0,weatherlink.com 1.10,2013-09-12 10:06:00,
2013-09-12 03:21:00,59.4,58.0,29.94,North,-999,0.0,0.0,95,0.01,,,0.01,0,weatherlink.com 1.10,2013-09-12 10:21:00,
2013-09-12 03:36:00,59.3,58.0,29.93,North,-999,0.0,0.0,96,0.01,,,0.01,0,weatherlink.com 1.10,2013-09-12 10:36:00,
2013-09-12 03:51:00,59.3,58.0,29.93,North,-999,0.0,0.0,96,0.01,,,0.02,0,weatherlink.com 1.10,2013-09-12 10:51:00,
2013-09-12 04:06:00,59.3,58.0,29.93,North,360,0.0,0.0,96,0.01,,,0.02,0,weatherlink.com 1.10,2013-09-12 11:06:00,
2013-09-12 04:21:00,59.4,58.0,29.93,North,360,0.0,0.0,96,0.01,,,0.02,0,weatherlink.com 1.10,2013-09-12 11:21:00,
2013-09-12 04:36:00,59.3,58.0,29.93,North,360,0.0,0.0,96,0.01,,,0.02,0,weatherlink.com 1.10,2013-09-12 11:36:00,
2013-09-12 04:51:00,59.2,58.0,29.93,North,-999,0.0,0.0,96,0.00,,,0.02,0,weatherlink.com 1.10,2013-09-12 11:51:00,
2013-09-12 05:06:00,59.1,58.0,29.93,North,-999,0.0,0.0,96,0.01,,,0.03,0,weatherlink.com 1.10,2013-09-12 12:06:00,
2013-09-12 05:21:00,59.1,58.0,29.93,North,-999,0.0,0.0,96,0.01,,,0.03,0,weatherlink.com 1.10,2013-09-12 12:21:00,
2013-09-12 05:36:00,59.0,58.0,29.93,North,-999,0.0,0.0,96,0.01,,,0.03,0,weatherlink.com 1.10,2013-09-12 12:36:00,
2013-09-12 05:51:00,59.1,58.0,29.93,North,-999,0.0,0.0,96,0.01,,,0.03,0,weatherlink.com 1.10,2013-09-12 12:51:00,
2013-09-12 06:06:00,59.0,58.0,29.93,North,360,0.0,0.0,96,0.00,,,0.03,0,weatherlink.com 1.10,2013-09-12 13:06:00,
2013-09-12 06:21:00,58.8,58.0,29.94,North,360,0.0,0.0,96,0.00,,,0.03,0,weatherlink.com 1.10,2013-09-12 13:21:00,
2013-09-12 06:36:00,58.7,58.0,29.94,North,360,0.0,0.0,96,0.00,,,0.03,0,weatherlink.com 1.10,2013-09-12 13:36:00,
2013-09-12 06:51:00,58.7,58.0,29.94,North,-999,0.0,0.0,96,0.00,,,0.03,0,weatherlink.com 1.10,2013-09-12 13:51:00,
2013-09-12 07:06:00,58.8,58.0,29.95,North,360,0.0,0.0,96,0.00,,,0.03,7,weatherlink.com 1.10,2013-09-12 14:06:00,
2013-09-12 07:21:00,58.8,58.0,29.95,North,-999,0.0,0.0,97,0.00,,,0.03,16,weatherlink.com 1.10,2013-09-12 14:21:00,
2013-09-12 07:36:00,58.9,58.0,29.95,North,360,0.0,0.0,97,0.00,,,0.03,28,weatherlink.com 1.10,2013-09-12 14:36:00,
2013-09-12 07:52:00,59.1,58.0,29.95,North,-999,0.0,0.0,97,0.00,,,0.03,26,weatherlink.com 1.10,2013-09-12 14:52:00,
2013-09-12 08:07:00,59.3,59.0,29.96,North,-999,0.0,0.0,97,0.00,,,0.03,30,weatherlink.com 1.10,2013-09-12 15:07:00,
2013-09-12 08:22:00,59.6,59.0,29.96,North,360,0.0,0.0,97,0.01,,,0.04,44,weatherlink.com 1.10,2013-09-12 15:22:00,
2013-09-12 08:37:00,59.8,59.0,29.96,North,-999,0.0,0.0,97,0.01,,,0.04,70,weatherlink.com 1.10,2013-09-12 15:37:00,
2013-09-12 08:52:00,59.8,59.0,29.96,North,360,0.0,0.0,97,0.01,,,0.04,83,weatherlink.com 1.10,2013-09-12 15:52:00,
2013-09-12 09:07:00,59.8,59.0,29.96,North,-999,0.0,0.0,97,0.01,,,0.04,79,weatherlink.com 1.10,2013-09-12 16:07:00,
2013-09-12 09:22:00,60.1,59.0,29.96,North,-999,0.0,0.0,97,0.00,,,0.04,79,weatherlink.com 1.10,2013-09-12 16:22:00,
2013-09-12 09:37:00,60.0,59.0,29.96,North,-999,0.0,0.0,97,0.00,,,0.04,95,weatherlink.com 1.10,2013-09-12 16:37:00,
2013-09-12 09:52:00,60.2,59.0,29.97,North,-999,0.0,0.0,97,0.00,,,0.04,130,weatherlink.com 1.10,2013-09-12 16:52:00,
2013-09-12 10:07:00,59.9,59.0,29.97,North,-999,0.0,0.0,97,0.00,,,0.04,116,weatherlink.com 1.10,2013-09-12 17:07:00,
2013-09-12 10:22:00,60.0,59.0,29.97,North,-999,0.0,0.0,97,0.00,,,0.04,178,weatherlink.com 1.10,2013-09-12 17:22:00,
2013-09-12 10:37:00,60.2,59.0,29.97,North,360,0.0,0.0,97,0.00,,,0.04,174,weatherlink.com 1.10,2013-09-12 17:37:00,
2013-09-12 10:52:00,60.7,60.0,29.96,North,360,0.0,0.0,97,0.00,,,0.04,207,weatherlink.com 1.10,2013-09-12 17:52:00,
2013-09-12 11:07:00,60.7,60.0,29.97,North,360,0.0,0.0,97,0.00,,,0.04,302,weatherlink.com 1.10,2013-09-12 18:07:00,
2013-09-12 11:22:00,60.7,60.0,29.96,North,360,0.0,0.0,96,0.00,,,0.04,167,weatherlink.com 1.10,2013-09-12 18:22:00,
2013-09-12 11:37:00,60.7,60.0,29.96,North,-999,0.0,0.0,96,0.00,,,0.04,209,weatherlink.com 1.10,2013-09-12 18:37:00,
2013-09-12 11:52:00,61.0,60.0,29.96,North,-999,0.0,0.0,96,0.00,,,0.04,380,weatherlink.com 1.10,2013-09-12 18:52:00,
2013-09-12 12:07:00,61.9,61.0,29.95,North,-999,0.0,0.0,95,0.00,,,0.04,670,weatherlink.com 1.10,2013-09-12 19:07:00,
2013-09-12 12:22:00,62.7,61.0,29.95,North,-999,0.0,0.0,93,0.00,,,0.04,758,weatherlink.com 1.10,2013-09-12 19:22:00,
2013-09-12 12:37:00,63.3,60.0,29.95,North,360,0.0,0.0,89,0.00,,,0.04,891,weatherlink.com 1.10,2013-09-12 19:37:00,
2013-09-12 12:52:00,64.1,60.0,29.95,North,360,0.0,0.0,87,0.00,,,0.04,466,weatherlink.com 1.10,2013-09-12 19:52:00,
2013-09-12 13:07:00,64.3,60.0,29.95,North,360,0.0,0.0,85,0.00,,,0.04,907,weatherlink.com 1.10,2013-09-12 20:07:00,
2013-09-12 13:22:00,64.7,61.0,29.95,North,360,0.0,0.0,86,0.00,,,0.04,285,weatherlink.com 1.10,2013-09-12 20:22:00,
2013-09-12 13:37:00,64.9,60.0,29.94,North,360,0.0,0.0,84,0.00,,,0.04,837,weatherlink.com 1.10,2013-09-12 20:37:00,
2013-09-12 14:07:00,65.0,60.0,29.94,North,-999,0.0,0.0,84,0.00,,,0.04,334,weatherlink.com 1.10,2013-09-12 21:07:00,
2013-09-12 14:22:00,64.5,60.0,29.93,North,360,0.0,0.0,85,0.00,,,0.04,318,weatherlink.com 1.10,2013-09-12 21:22:00,
2013-09-12 14:37:00,64.0,60.0,29.93,North,360,0.0,0.0,85,0.00,,,0.04,309,weatherlink.com 1.10,2013-09-12 21:37:00,
2013-09-12 14:52:00,64.0,60.0,29.93,North,-999,0.0,0.0,85,0.00,,,0.04,271,weatherlink.com 1.10,2013-09-12 21:52:00,
2013-09-12 15:07:00,64.0,60.0,29.93,North,360,0.0,0.0,85,0.00,,,0.04,243,weatherlink.com 1.10,2013-09-12 22:07:00,
2013-09-12 15:22:00,63.5,59.0,29.92,North,-999,0.0,0.0,85,0.00,,,0.04,225,weatherlink.com 1.10,2013-09-12 22:22:00,
2013-09-12 15:37:00,63.3,59.0,29.92,North,-999,0.0,0.0,86,0.00,,,0.04,237,weatherlink.com 1.10,2013-09-12 22:37:00,
2013-09-12 15:52:00,62.8,59.0,29.92,North,-999,0.0,0.0,87,0.00,,,0.04,188,weatherlink.com 1.10,2013-09-12 22:52:00,
2013-09-12 16:07:00,62.4,59.0,29.91,North,-999,0.0,0.0,87,0.00,,,0.04,167,weatherlink.com 1.10,2013-09-12 23:07:00,
2013-09-12 16:22:00,62.1,59.0,29.91,North,-999,0.0,0.0,88,0.00,,,0.04,158,weatherlink.com 1.10,2013-09-12 23:22:00,
2013-09-12 16:37:00,61.9,59.0,29.90,North,-999,0.0,0.0,89,0.00,,,0.04,135,weatherlink.com 1.10,2013-09-12 23:37:00,
2013-09-12 16:52:00,61.7,59.0,29.90,North,-999,0.0,0.0,89,0.00,,,0.04,114,weatherlink.com 1.10,2013-09-12 23:52:00,
2013-09-12 17:07:00,61.2,58.0,29.90,North,-999,0.0,0.0,89,0.00,,,0.04,86,weatherlink.com 1.10,2013-09-13 00:07:00,
2013-09-12 17:22:00,60.9,58.0,29.90,North,360,0.0,0.0,90,0.00,,,0.04,76,weatherlink.com 1.10,2013-09-13 00:22:00,
2013-09-12 17:37:00,60.5,58.0,29.90,North,-999,0.0,0.0,90,0.00,,,0.04,54,weatherlink.com 1.10,2013-09-13 00:37:00,
2013-09-12 17:52:00,60.0,57.0,29.90,North,-999,0.0,0.0,91,0.00,,,0.04,47,weatherlink.com 1.10,2013-09-13 00:52:00,
2013-09-12 18:08:00,59.5,57.0,29.90,North,-999,0.0,0.0,92,0.00,,,0.04,33,weatherlink.com 1.10,2013-09-13 01:08:00,
2013-09-12 18:23:00,59.1,57.0,29.89,North,-999,0.0,0.0,93,0.00,,,0.04,23,weatherlink.com 1.10,2013-09-13 01:23:00,
2013-09-12 18:38:00,58.8,57.0,29.90,North,-999,0.0,0.0,93,0.00,,,0.04,16,weatherlink.com 1.10,2013-09-13 01:38:00,
2013-09-12 18:53:00,58.5,57.0,29.90,North,-999,0.0,0.0,94,0.00,,,0.04,9,weatherlink.com 1.10,2013-09-13 01:53:00,
2013-09-12 19:08:00,58.2,57.0,29.90,North,-999,0.0,0.0,94,0.00,,,0.04,5,weatherlink.com 1.10,2013-09-13 02:08:00,
2013-09-12 19:23:00,58.1,56.0,29.89,North,-999,0.0,0.0,94,0.00,,,0.04,0,weatherlink.com 1.10,2013-09-13 02:23:00,
2013-09-12 19:38:00,58.0,57.0,29.89,North,-999,0.0,0.0,95,0.00,,,0.04,0,weatherlink.com 1.10,2013-09-13 02:38:00,
2013-09-12 19:53:00,57.9,57.0,29.89,North,360,0.0,0.0,95,0.00,,,0.04,0,weatherlink.com 1.10,2013-09-13 02:53:00,
2013-09-12 20:08:00,57.6,56.0,29.89,North,360,0.0,0.0,95,0.00,,,0.04,0,weatherlink.com 1.10,2013-09-13 03:08:00,
2013-09-12 20:23:00,57.2,56.0,29.90,North,360,0.0,0.0,95,0.00,,,0.04,0,weatherlink.com 1.10,2013-09-13 03:23:00,
2013-09-12 20:38:00,57.2,56.0,29.90,North,-999,0.0,0.0,95,0.00,,,0.04,0,weatherlink.com 1.10,2013-09-13 03:38:00,
2013-09-12 20:53:00,57.3,56.0,29.90,North,-999,0.0,0.0,96,0.00,,,0.04,0,weatherlink.com 1.10,2013-09-13 03:53:00,
2013-09-12 21:08:00,57.1,56.0,29.91,North,-999,0.0,0.0,95,0.00,,,0.04,0,weatherlink.com 1.10,2013-09-13 04:08:00,
2013-09-12 21:23:00,56.9,56.0,29.91,North,-999,0.0,0.0,96,0.00,,,0.04,0,weatherlink.com 1.10,2013-09-13 04:23:00,
2013-09-12 21:38:00,56.9,56.0,29.91,North,-999,0.0,0.0,96,0.00,,,0.04,0,weatherlink.com 1.10,2013-09-13 04:38:00,
2013-09-12 21:53:00,56.8,56.0,29.91,North,-999,0.0,0.0,96,0.00,,,0.04,0,weatherlink.com 1.10,2013-09-13 04:53:00,
2013-09-12 22:08:00,56.9,56.0,29.91,North,-999,0.0,0.0,96,0.00,,,0.04,0,weatherlink.com 1.10,2013-09-13 05:08:00,
2013-09-12 22:23:00,56.9,56.0,29.91,North,360,0.0,0.0,96,0.00,,,0.04,0,weatherlink.com 1.10,2013-09-13 05:23:00,
2013-09-12 22:38:00,56.9,56.0,29.91,North,360,0.0,0.0,96,0.00,,,0.04,0,weatherlink.com 1.10,2013-09-13 05:38:00,
2013-09-12 22:53:00,56.8,56.0,29.91,North,360,0.0,0.0,96,0.00,,,0.04,0,weatherlink.com 1.10,2013-09-13 05:53:00,
2013-09-12 23:08:00,56.8,56.0,29.91,North,-999,0.0,0.0,96,0.00,,,0.04,0,weatherlink.com 1.10,2013-09-13 06:08:00,
2013-09-12 23:23:00,56.7,56.0,29.91,North,-999,0.0,0.0,96,0.00,,,0.04,0,weatherlink.com 1.10,2013-09-13 06:23:00,
2013-09-12 23:38:00,56.5,55.0,29.90,North,-999,0.0,0.0,96,0.00,,,0.04,0,weatherlink.com 1.10,2013-09-13 06:38:00,
2013-09-12 23:53:00,56.6,56.0,29.90,North,-999,0.0,0.0,96,0.00,,,0.04,0,weatherlink.com 1.10,2013-09-13 06:53:00,